Greenfield, Ohio
Current Conditions -  °F | °C
As of 10:34 PM on Monday 26 Jan 2015 (Local Time) from KRZT Reporting Station
Scattered Clouds Scattered Clouds  
Wind Chill:   Ceiling: Unl
Heat Index:   Visibility: 10mi
Dew Point:   Wind: 0mph
Humidity: 92%   Direction: NA
Pressure: 29.96"   Gusts: NA
Location:  39.35°N, 83.38°W
Report Text: KRZT 270334Z AUTO 00000KT 10SM SCT095 M13/M14 A2996 RMK AO2
Loading
Personal Weather Stations






























Interactive Weather Map New forecast layout! Learn more

10-Day Weather Forecast

Advertisements
Track Severe Weather on mobile